MET'MAP v2.0
soon released !

Expected late october,
this new version will be
more efficient, smarter,
and hosted on a brand new
server x3 powerfull...
...and still free !


Not compatible ?
Try the mobile version !

LOG IN : | Subscribe | Disclaimer | Who is Orbifly ? |
ICAO code :

TAF - LDOS Osijek - 25 May 2020 06:58 UTC - Data Source NOAA   


- Airport Elevation : 290 ft
- IATA code : OSI
- No reported NOTAMs.


LDOS - Osijek

Latest METAR recorded : 2015/08/11 08:00 LDOS 110800Z 11005KT 080V170 CAVOK 29/17 Q1013
TAF TAF LDOS
Valid from the 25 at 00:00 until the 26 at 00:00 UTC


242325Z 2500/2600 32010KT CAVOK TX22/2513Z TN10/2504Z
PROB30
TEMPO 2512/2520 TSRA FEW045CB

Source NOAA


MET'MAP, your aeronautical weather chart ! - Copyright ORBIFLY December 2007

Programming & Development : Alexandra Zaïnal
Co-Developer : Marc-Olivier Méhu
Technical & hardware support : Manuel Goepfert
Concept & Financing : Baudouin d'Aumeries